Time;durP1;ratioP1;P1;durP2;ratioP2;P2;SDS_P1;SDS_P2;PMS_P1;PMS_P2;Temp;Humidity;BMP_temperature;BMP_pressure;BME280_temperature;BME280_humidity;BME280_pressure;Samples;Min_cycle;Max_cycle;Signal;HPM_P1;HPM_P2
2021/09/07 00:00:34;;;;;;;11.10;9.35;;;14.60;99.90;;;;;;5103605;27;20127;-67
2021/09/07 00:02:59;;;;;;;14.35;9.90;;;14.60;99.90;;;;;;5089397;27;20037;-67
2021/09/07 00:05:25;;;;;;;12.82;9.95;;;14.70;99.90;;;;;;5094600;27;20396;-67
2021/09/07 00:07:50;;;;;;;14.15;10.07;;;14.70;99.90;;;;;;5116898;27;20393;-67
2021/09/07 00:10:16;;;;;;;12.00;9.60;;;14.70;99.90;;;;;;5119373;27;20043;-67
2021/09/07 00:12:43;;;;;;;10.70;8.90;;;14.70;99.90;;;;;;5121772;27;20039;-67
2021/09/07 00:15:11;;;;;;;16.58;12.30;;;14.70;99.90;;;;;;5120956;27;20031;-67
2021/09/07 00:17:37;;;;;;;15.27;9.70;;;14.70;99.90;;;;;;5125792;27;20150;-67
2021/09/07 00:20:04;;;;;;;18.40;11.05;;;14.70;99.90;;;;;;5099194;27;20514;-67
2021/09/07 00:22:29;;;;;;;14.70;10.93;;;14.80;99.90;;;;;;5095526;27;20492;-67
2021/09/07 00:24:55;;;;;;;16.17;11.68;;;14.80;99.90;;;;;;5118542;27;20038;-67
2021/09/07 00:27:21;;;;;;;14.80;10.25;;;14.80;99.90;;;;;;5126775;27;20046;-67
2021/09/07 00:29:46;;;;;;;13.73;10.43;;;14.80;99.90;;;;;;5119282;27;20050;-67
2021/09/07 00:32:12;;;;;;;19.58;11.95;;;14.80;99.90;;;;;;5109226;27;20036;-67
2021/09/07 00:34:38;;;;;;;14.25;12.25;;;14.80;99.90;;;;;;5104911;27;20037;-67
2021/09/07 00:37:04;;;;;;;13.93;10.77;;;14.70;99.90;;;;;;5123936;27;20027;-67
2021/09/07 00:39:29;;;;;;;16.55;12.95;;;14.70;99.90;;;;;;5124590;27;20358;-67
2021/09/07 00:41:55;;;;;;;16.70;11.98;;;14.70;99.90;;;;;;5108337;27;20050;-67
2021/09/07 00:44:25;;;;;;;16.38;10.80;;;14.70;99.90;;;;;;5115783;27;20043;-67
2021/09/07 00:46:56;;;;;;;14.13;11.50;;;14.70;99.90;;;;;;5105354;27;20477;-67
2021/09/07 00:49:23;;;;;;;16.48;12.27;;;14.70;99.90;;;;;;5120764;27;20376;-67
2021/09/07 00:51:52;;;;;;;14.18;11.55;;;14.60;99.90;;;;;;5114562;27;20055;-67
2021/09/07 00:54:20;;;;;;;14.50;11.30;;;14.60;99.90;;;;;;5103830;27;20046;-67
2021/09/07 00:56:47;;;;;;;16.58;11.77;;;14.60;99.90;;;;;;5105989;27;20046;-67
2021/09/07 00:59:14;;;;;;;13.20;11.75;;;14.60;99.90;;;;;;5102177;27;20040;-67
2021/09/07 01:01:39;;;;;;;20.92;13.13;;;14.50;99.90;;;;;;5124297;27;20036;-67
2021/09/07 01:04:05;;;;;;;13.30;10.90;;;14.60;99.90;;;;;;5122808;27;20050;-67
2021/09/07 01:06:32;;;;;;;12.15;10.50;;;14.50;99.90;;;;;;5121485;27;20042;-67
2021/09/07 01:08:58;;;;;;;14.15;10.18;;;14.50;99.90;;;;;;5124184;27;20052;-67
2021/09/07 01:11:24;;;;;;;12.50;10.05;;;14.40;99.90;;;;;;5108407;27;20115;-67
2021/09/07 01:13:50;;;;;;;12.73;10.35;;;14.40;99.90;;;;;;5119289;27;20508;-67
2021/09/07 01:16:15;;;;;;;14.13;8.85;;;14.30;99.90;;;;;;5107143;27;20034;-67
2021/09/07 01:18:41;;;;;;;14.02;9.98;;;14.30;99.90;;;;;;5122334;27;20057;-67
2021/09/07 01:21:15;;;;;;;13.82;10.35;;;14.30;99.90;;;;;;5121325;27;20047;-67
2021/09/07 01:23:43;;;;;;;14.27;10.55;;;14.20;99.90;;;;;;5106123;27;20384;-67
2021/09/07 01:26:14;;;;;;;14.75;11.27;;;14.30;99.90;;;;;;5104371;27;20047;-67
2021/09/07 01:28:40;;;;;;;14.32;12.07;;;14.20;99.90;;;;;;5104252;27;20047;-67
2021/09/07 01:31:07;;;;;;;27.00;11.30;;;14.10;99.90;;;;;;5113566;27;20614;-67
2021/09/07 01:33:34;;;;;;;14.73;11.55;;;14.10;99.90;;;;;;5119963;27;20071;-67
2021/09/07 01:36:00;;;;;;;15.35;12.43;;;14.10;99.90;;;;;;5106034;27;20040;-67
2021/09/07 01:38:28;;;;;;;10.77;9.38;;;14.10;99.90;;;;;;5121267;27;20043;-67
2021/09/07 01:40:54;;;;;;;12.63;10.55;;;14.10;99.90;;;;;;5106308;28;20522;-67
2021/09/07 01:43:31;;;;;;;14.45;11.05;;;14.10;99.90;;;;;;5122200;28;20043;-67
2021/09/07 01:45:57;;;;;;;18.17;12.45;;;14.20;99.90;;;;;;5111236;28;20042;-67
2021/09/07 01:48:24;;;;;;;17.13;12.32;;;14.20;99.90;;;;;;5108091;28;20031;-67
2021/09/07 01:50:50;;;;;;;16.52;12.73;;;14.20;99.90;;;;;;5107054;28;20047;-67
2021/09/07 01:53:16;;;;;;;14.40;12.45;;;14.20;99.90;;;;;;5104786;28;20066;-67
2021/09/07 01:55:43;;;;;;;16.92;12.85;;;14.30;99.90;;;;;;5113587;28;20484;-67
2021/09/07 01:58:09;;;;;;;15.32;13.68;;;14.30;99.90;;;;;;5122860;28;20095;-67
2021/09/07 02:00:35;;;;;;;13.52;10.75;;;14.30;99.90;;;;;;5124678;27;20122;-67
2021/09/07 02:03:00;;;;;;;15.85;11.98;;;14.30;99.90;;;;;;5123501;27;20038;-67
2021/09/07 02:05:26;;;;;;;18.58;13.02;;;14.30;99.90;;;;;;5127260;27;20040;-67
2021/09/07 02:07:52;;;;;;;15.43;12.60;;;14.40;99.90;;;;;;5107454;27;20081;-67
2021/09/07 02:10:19;;;;;;;13.75;11.93;;;14.40;99.90;;;;;;5116293;27;20043;-67
2021/09/07 02:12:46;;;;;;;12.60;9.77;;;14.40;99.90;;;;;;5129687;27;20767;-67
2021/09/07 02:15:12;;;;;;;13.55;9.13;;;14.40;99.90;;;;;;5106197;27;20035;-67
2021/09/07 02:17:38;;;;;;;12.18;9.90;;;14.30;99.90;;;;;;5109387;27;20043;-67
2021/09/07 02:20:05;;;;;;;12.15;8.80;;;14.20;99.90;;;;;;5109770;27;20034;-67
2021/09/07 02:22:31;;;;;;;12.00;9.65;;;14.20;99.90;;;;;;5109168;27;20035;-67
2021/09/07 02:24:57;;;;;;;11.68;10.43;;;14.10;99.90;;;;;;5124539;27;20039;-67
2021/09/07 02:27:22;;;;;;;14.52;9.95;;;14.10;99.90;;;;;;5122782;27;20668;-67
2021/09/07 02:29:48;;;;;;;12.60;11.40;;;14.10;99.90;;;;;;5101579;27;20043;-67
2021/09/07 02:32:14;;;;;;;14.07;12.68;;;14.20;99.90;;;;;;5115996;27;20044;-67
2021/09/07 02:34:40;;;;;;;15.70;13.75;;;14.20;99.90;;;;;;5125094;27;20027;-67
2021/09/07 02:37:06;;;;;;;16.08;14.00;;;14.20;99.90;;;;;;5111588;27;20490;-67
2021/09/07 02:39:32;;;;;;;15.68;14.00;;;14.30;99.90;;;;;;5104608;27;20050;-67
2021/09/07 02:41:58;;;;;;;15.15;13.57;;;14.30;99.90;;;;;;5121080;27;20040;-67
2021/09/07 02:44:23;;;;;;;21.42;14.32;;;14.20;99.90;;;;;;5120552;27;20121;-67
2021/09/07 02:46:49;;;;;;;16.98;13.73;;;14.20;99.90;;;;;;5125103;27;20540;-67
2021/09/07 02:49:15;;;;;;;17.02;12.52;;;14.20;99.90;;;;;;5114780;27;20112;-67
2021/09/07 02:51:43;;;;;;;14.40;12.35;;;14.20;99.90;;;;;;5104968;27;20035;-67
2021/09/07 02:54:09;;;;;;;14.88;12.68;;;14.20;99.90;;;;;;5123224;27;20054;-67
2021/09/07 02:56:35;;;;;;;14.30;12.48;;;14.30;99.90;;;;;;5106103;27;20049;-67
2021/09/07 02:59:00;;;;;;;14.52;12.20;;;14.30;99.90;;;;;;5113501;27;20031;-67
2021/09/07 03:01:26;;;;;;;16.85;12.85;;;14.40;99.90;;;;;;5117116;27;20035;-67
2021/09/07 03:03:51;;;;;;;16.65;12.02;;;14.30;99.90;;;;;;5120067;27;20039;-67
2021/09/07 03:06:17;;;;;;;12.27;10.15;;;14.40;99.90;;;;;;5107150;27;20043;-67
2021/09/07 03:08:43;;;;;;;14.02;10.60;;;14.40;99.90;;;;;;5107708;27;20096;-67
2021/09/07 03:11:08;;;;;;;15.07;10.15;;;14.40;99.90;;;;;;5116958;27;20054;-67
2021/09/07 03:13:34;;;;;;;12.38;10.70;;;14.40;99.90;;;;;;5126890;27;20035;-67
2021/09/07 03:15:59;;;;;;;13.70;9.85;;;14.40;99.90;;;;;;5100884;27;20426;-67
2021/09/07 03:18:25;;;;;;;14.43;10.90;;;14.40;99.90;;;;;;5105427;27;20512;-67
2021/09/07 03:20:51;;;;;;;16.88;12.27;;;14.40;99.90;;;;;;5121957;27;20485;-67
2021/09/07 03:23:17;;;;;;;14.02;12.40;;;14.40;99.90;;;;;;5104386;27;20043;-67
2021/09/07 03:25:42;;;;;;;15.90;13.48;;;14.40;99.90;;;;;;5119335;27;20076;-67
2021/09/07 03:28:08;;;;;;;18.50;14.50;;;14.40;99.90;;;;;;5107919;27;20459;-67
2021/09/07 03:30:34;;;;;;;15.65;13.95;;;14.40;99.90;;;;;;5107410;27;20457;-67
2021/09/07 03:33:00;;;;;;;14.73;12.35;;;14.40;99.90;;;;;;5104441;27;20100;-67
2021/09/07 03:35:26;;;;;;;15.00;11.02;;;14.50;99.90;;;;;;5122606;27;20040;-67
2021/09/07 03:37:52;;;;;;;12.68;11.25;;;14.50;99.90;;;;;;5101050;27;20051;-67
2021/09/07 03:40:17;;;;;;;16.30;10.88;;;14.50;99.90;;;;;;5104304;27;20039;-67
2021/09/07 03:42:43;;;;;;;13.27;9.30;;;14.50;99.90;;;;;;5121363;27;20053;-67
2021/09/07 03:45:11;;;;;;;15.35;11.55;;;14.50;99.90;;;;;;5117767;27;20032;-67
2021/09/07 03:47:39;;;;;;;12.02;10.35;;;14.50;99.90;;;;;;5109182;27;20531;-67
2021/09/07 03:50:05;;;;;;;12.27;10.63;;;14.60;99.90;;;;;;5109654;27;20039;-67
2021/09/07 03:52:31;;;;;;;15.88;12.32;;;14.60;99.90;;;;;;5127297;27;20031;-67
2021/09/07 03:54:56;;;;;;;16.77;12.88;;;14.60;99.90;;;;;;5130638;27;20422;-67
2021/09/07 03:57:22;;;;;;;18.45;13.80;;;14.60;99.90;;;;;;5107393;27;20365;-67
2021/09/07 03:59:48;;;;;;;13.23;11.75;;;14.60;99.90;;;;;;5128254;27;20031;-67
2021/09/07 04:02:14;;;;;;;13.68;10.63;;;14.60;99.90;;;;;;5110497;27;20048;-67
2021/09/07 04:04:39;;;;;;;13.43;11.95;;;14.60;99.90;;;;;;5124408;27;20132;-67
2021/09/07 04:07:05;;;;;;;14.32;12.18;;;14.60;99.90;;;;;;5128169;27;20039;-67
2021/09/07 04:09:31;;;;;;;14.40;11.73;;;14.60;99.90;;;;;;5125877;27;20046;-67
2021/09/07 04:11:56;;;;;;;12.48;10.55;;;14.60;99.90;;;;;;5124511;27;20035;-67
2021/09/07 04:14:22;;;;;;;12.63;10.68;;;14.60;99.90;;;;;;5114159;27;20065;-67
2021/09/07 04:16:48;;;;;;;13.68;10.93;;;14.60;99.90;;;;;;5119415;27;20550;-67
2021/09/07 04:19:14;;;;;;;18.52;12.00;;;14.60;99.90;;;;;;5115611;27;20044;-67
2021/09/07 04:21:40;;;;;;;15.27;10.88;;;14.60;99.90;;;;;;5103823;27;20481;-67
2021/09/07 04:24:06;;;;;;;12.95;10.95;;;14.60;99.90;;;;;;5120889;27;20043;-68
2021/09/07 04:26:32;;;;;;;13.23;10.18;;;14.60;99.90;;;;;;5113926;27;20035;-67
2021/09/07 04:28:58;;;;;;;17.55;11.27;;;14.60;99.90;;;;;;5122000;27;20469;-67
2021/09/07 04:31:24;;;;;;;14.85;11.80;;;14.60;99.90;;;;;;5127008;27;20039;-67
2021/09/07 04:33:50;;;;;;;19.73;12.45;;;14.60;99.90;;;;;;5124189;27;20046;-67
2021/09/07 04:36:15;;;;;;;15.75;12.73;;;14.60;99.90;;;;;;5102281;27;20397;-67
2021/09/07 04:38:41;;;;;;;13.57;11.55;;;14.60;99.90;;;;;;5119061;27;20118;-67
2021/09/07 04:41:06;;;;;;;16.17;13.35;;;14.60;99.90;;;;;;5116474;27;20140;-67
2021/09/07 04:43:32;;;;;;;18.02;12.85;;;14.70;99.90;;;;;;5121076;27;20039;-68
2021/09/07 04:45:58;;;;;;;16.25;11.98;;;14.70;99.90;;;;;;5120589;27;20063;-68
2021/09/07 04:48:23;;;;;;;13.50;12.10;;;14.70;99.90;;;;;;5100853;27;20031;-68
2021/09/07 04:50:49;;;;;;;15.18;13.55;;;14.70;99.90;;;;;;5101577;27;20052;-68
2021/09/07 04:53:14;;;;;;;17.80;13.05;;;14.80;99.90;;;;;;5106222;27;20485;-68
2021/09/07 04:55:40;;;;;;;21.83;12.48;;;14.80;99.90;;;;;;5113756;27;20035;-68
2021/09/07 04:58:06;;;;;;;14.95;13.18;;;14.80;99.90;;;;;;5101791;27;20180;-68
2021/09/07 05:00:31;;;;;;;15.98;13.70;;;14.80;99.90;;;;;;5105649;27;20043;-68
2021/09/07 05:02:57;;;;;;;17.77;13.70;;;14.80;99.90;;;;;;5102980;27;20039;-68
2021/09/07 05:05:22;;;;;;;15.93;13.43;;;14.90;99.90;;;;;;5096714;27;20038;-68
2021/09/07 05:07:48;;;;;;;16.60;14.55;;;14.80;99.90;;;;;;5108081;28;20084;-68
2021/09/07 05:10:14;;;;;;;17.30;12.52;;;14.80;99.90;;;;;;5105887;27;20053;-68
2021/09/07 05:12:39;;;;;;;15.43;12.77;;;14.80;99.90;;;;;;5120550;27;20035;-68
2021/09/07 05:15:06;;;;;;;24.80;14.25;;;14.80;99.90;;;;;;5104477;27;20036;-68
2021/09/07 05:17:32;;;;;;;17.20;13.68;;;14.90;99.90;;;;;;5101852;27;20043;-68
2021/09/07 05:19:57;;;;;;;18.15;13.07;;;14.90;99.90;;;;;;5093497;27;20047;-68
2021/09/07 05:22:23;;;;;;;14.65;11.93;;;14.90;99.90;;;;;;5110858;27;20051;-68
2021/09/07 05:24:49;;;;;;;16.38;12.50;;;14.90;99.90;;;;;;5115170;27;20040;-68
2021/09/07 05:27:15;;;;;;;18.88;13.63;;;14.90;99.90;;;;;;5114896;27;20046;-68
2021/09/07 05:29:41;;;;;;;15.50;12.75;;;14.90;99.90;;;;;;5112592;27;20046;-68
2021/09/07 05:32:06;;;;;;;25.17;15.07;;;14.90;99.90;;;;;;5117892;27;20031;-68
2021/09/07 05:34:33;;;;;;;16.10;12.95;;;14.90;99.90;;;;;;5098704;28;20039;-68
2021/09/07 05:36:58;;;;;;;15.73;13.95;;;14.90;99.90;;;;;;5113107;27;20184;-68
2021/09/07 05:39:24;;;;;;;13.60;11.30;;;14.90;99.90;;;;;;5098437;28;20536;-68
2021/09/07 05:41:51;;;;;;;14.07;11.77;;;14.90;99.90;;;;;;5097488;28;20039;-68
2021/09/07 05:44:17;;;;;;;17.38;13.93;;;14.90;99.90;;;;;;5114816;28;20031;-68
2021/09/07 05:46:43;;;;;;;13.90;12.50;;;14.90;99.90;;;;;;5116789;28;20035;-68
2021/09/07 05:49:08;;;;;;;13.52;12.02;;;14.90;99.90;;;;;;5114315;28;20032;-68
2021/09/07 05:51:34;;;;;;;17.33;12.57;;;14.90;99.90;;;;;;5095374;28;20074;-68
2021/09/07 05:53:59;;;;;;;14.32;12.88;;;15.00;99.90;;;;;;5114088;28;20089;-68
2021/09/07 05:56:25;;;;;;;16.58;13.07;;;15.00;99.90;;;;;;5116835;28;20050;-68
2021/09/07 05:58:50;;;;;;;21.45;14.65;;;15.00;99.90;;;;;;5106545;28;20689;-68
2021/09/07 06:01:16;;;;;;;19.55;12.85;;;15.10;99.90;;;;;;5112731;27;20488;-68
2021/09/07 06:03:42;;;;;;;17.20;12.88;;;15.20;99.90;;;;;;5111136;27;20187;-68
2021/09/07 06:06:08;;;;;;;15.93;13.60;;;15.20;99.90;;;;;;5092963;28;20043;-68
2021/09/07 06:08:34;;;;;;;15.52;13.35;;;15.30;99.90;;;;;;5111502;27;21344;-66
2021/09/07 06:11:00;;;;;;;19.60;13.77;;;15.30;99.90;;;;;;5110309;27;20064;-66
2021/09/07 06:13:26;;;;;;;17.83;14.05;;;15.40;99.90;;;;;;5113470;27;20035;-66
2021/09/07 06:15:51;;;;;;;22.23;14.65;;;15.50;99.90;;;;;;5111159;27;20042;-66
2021/09/07 06:18:17;;;;;;;17.40;15.35;;;15.50;99.90;;;;;;5093846;28;20039;-66
2021/09/07 06:20:43;;;;;;;22.00;14.95;;;15.60;99.90;;;;;;5108612;27;20043;-66
2021/09/07 06:23:09;;;;;;;19.08;14.80;;;15.60;99.90;;;;;;5113886;27;20028;-66
2021/09/07 06:25:35;;;;;;;19.55;15.73;;;15.70;99.90;;;;;;5094705;27;20039;-66
2021/09/07 06:28:01;;;;;;;17.25;14.07;;;15.70;99.90;;;;;;5109457;27;20977;-66
2021/09/07 06:30:27;;;;;;;20.77;15.60;;;15.70;99.90;;;;;;5110810;27;20031;-66
2021/09/07 06:32:52;;;;;;;17.70;13.45;;;15.70;99.90;;;;;;5111191;27;20078;-66
2021/09/07 06:35:18;;;;;;;21.48;13.50;;;15.80;99.90;;;;;;5111145;27;20063;-66
2021/09/07 06:37:44;;;;;;;19.25;13.07;;;15.80;99.90;;;;;;5112567;27;20073;-66
2021/09/07 06:40:10;;;;;;;19.80;15.07;;;15.90;99.90;;;;;;5109859;27;20075;-65
2021/09/07 06:42:36;;;;;;;18.38;14.38;;;15.90;99.90;;;;;;5109914;27;20511;-65
2021/09/07 06:45:03;;;;;;;17.92;14.05;;;15.90;99.90;;;;;;5108816;27;20124;-66
2021/09/07 06:47:29;;;;;;;22.05;14.02;;;16.00;99.90;;;;;;5113637;27;20039;-66
2021/09/07 06:49:54;;;;;;;18.55;14.05;;;16.00;99.90;;;;;;5112439;27;20121;-66
2021/09/07 06:52:22;;;;;;;16.77;13.70;;;16.10;99.90;;;;;;5115365;27;20085;-66
2021/09/07 06:54:48;;;;;;;16.88;13.88;;;16.10;99.90;;;;;;5095599;27;20100;-66
2021/09/07 06:57:13;;;;;;;17.92;14.63;;;16.20;99.90;;;;;;5115173;27;20077;-66
2021/09/07 06:59:39;;;;;;;15.98;14.25;;;16.30;99.90;;;;;;5094794;27;20055;-66
2021/09/07 07:02:05;;;;;;;17.80;13.30;;;16.30;99.90;;;;;;5114517;27;20047;-66
2021/09/07 07:04:31;;;;;;;18.52;14.05;;;16.40;99.90;;;;;;5112383;27;20043;-66
2021/09/07 07:06:56;;;;;;;19.45;13.48;;;16.40;99.90;;;;;;5115151;27;20035;-66
2021/09/07 07:09:22;;;;;;;19.88;14.35;;;16.60;99.90;;;;;;5114513;27;20130;-65
2021/09/07 07:11:47;;;;;;;18.33;12.90;;;16.70;99.90;;;;;;5115675;27;20081;-66
2021/09/07 07:14:13;;;;;;;18.27;13.55;;;16.90;99.90;;;;;;5115624;27;20043;-66
2021/09/07 07:16:38;;;;;;;14.77;13.15;;;17.10;99.90;;;;;;5114835;27;20393;-66
2021/09/07 07:19:04;;;;;;;17.15;13.90;;;17.40;99.90;;;;;;5097911;27;20051;-66
2021/09/07 07:21:29;;;;;;;17.63;13.30;;;17.50;99.90;;;;;;5093868;27;20043;-65
2021/09/07 07:23:56;;;;;;;16.65;12.93;;;17.70;99.90;;;;;;5111426;27;20031;-66
2021/09/07 07:26:22;;;;;;;23.92;13.93;;;17.90;99.90;;;;;;5096906;27;20044;-65
2021/09/07 07:28:47;;;;;;;20.40;12.88;;;18.10;99.90;;;;;;5112976;27;20047;-65
2021/09/07 07:31:13;;;;;;;19.77;14.73;;;18.30;99.90;;;;;;5113051;27;20039;-65
2021/09/07 07:33:39;;;;;;;17.90;13.70;;;18.50;99.90;;;;;;5111031;27;20038;-65
2021/09/07 07:36:04;;;;;;;18.13;15.18;;;18.70;99.90;;;;;;5097154;27;21425;-65
2021/09/07 07:38:31;;;;;;;16.92;14.68;;;18.80;99.90;;;;;;5113818;27;20043;-65
2021/09/07 07:40:56;;;;;;;16.63;14.93;;;18.90;99.90;;;;;;5115398;27;20039;-65
2021/09/07 07:43:25;;;;;;;23.48;14.85;;;19.00;99.90;;;;;;5095348;27;20587;-68
2021/09/07 07:45:51;;;;;;;19.15;14.65;;;19.00;99.90;;;;;;5115986;27;20167;-68
2021/09/07 07:48:17;;;;;;;16.60;13.30;;;19.10;99.90;;;;;;5114108;27;20062;-66
2021/09/07 07:50:43;;;;;;;19.48;14.82;;;19.30;99.90;;;;;;5115192;27;20063;-66
2021/09/07 07:53:08;;;;;;;16.30;13.55;;;19.30;99.90;;;;;;5093105;28;20052;-66
2021/09/07 07:55:34;;;;;;;16.77;14.43;;;19.40;99.90;;;;;;5115586;27;20036;-65
2021/09/07 07:58:00;;;;;;;18.77;14.23;;;19.50;99.90;;;;;;5114512;27;20039;-66
2021/09/07 08:00:25;;;;;;;15.23;13.57;;;19.50;99.90;;;;;;5114358;27;20078;-66
2021/09/07 08:02:51;;;;;;;16.92;13.65;;;19.60;99.90;;;;;;5096594;27;20042;-66
2021/09/07 08:05:16;;;;;;;18.92;12.35;;;19.80;99.90;;;;;;5112178;27;20519;-66
2021/09/07 08:07:42;;;;;;;17.08;13.63;;;19.80;99.90;;;;;;5094430;27;20453;-66
2021/09/07 08:10:08;;;;;;;18.15;12.80;;;19.90;99.90;;;;;;5112762;27;20031;-66
2021/09/07 08:12:34;;;;;;;15.77;13.35;;;20.10;99.90;;;;;;5118483;27;20039;-66
2021/09/07 08:15:00;;;;;;;17.35;13.20;;;20.20;99.90;;;;;;5114407;27;20047;-66
2021/09/07 08:17:25;;;;;;;21.52;12.85;;;20.30;99.90;;;;;;5096432;27;20035;-66
2021/09/07 08:19:51;;;;;;;20.02;13.82;;;20.50;99.90;;;;;;5117805;27;20768;-66
2021/09/07 08:22:17;;;;;;;18.38;13.45;;;20.80;99.90;;;;;;5110123;27;20123;-66
2021/09/07 08:24:43;;;;;;;20.10;12.98;;;20.90;99.90;;;;;;5114902;27;20400;-66
2021/09/07 08:27:09;;;;;;;15.60;13.93;;;21.20;99.90;;;;;;5095543;27;20793;-66
2021/09/07 08:29:35;;;;;;;14.55;13.02;;;21.40;99.90;;;;;;5094532;27;20043;-66
2021/09/07 08:32:00;;;;;;;14.70;12.45;;;21.60;99.90;;;;;;5112816;27;20491;-66
2021/09/07 08:34:26;;;;;;;22.25;12.95;;;21.80;99.90;;;;;;5112988;27;20035;-66
2021/09/07 08:36:52;;;;;;;16.63;12.95;;;22.00;99.90;;;;;;5095482;27;20040;-66
2021/09/07 08:39:17;;;;;;;15.30;12.90;;;22.20;99.90;;;;;;5113802;27;20067;-66
2021/09/07 08:41:44;;;;;;;17.45;13.35;;;22.40;99.90;;;;;;5109099;27;20078;-66
2021/09/07 08:44:10;;;;;;;15.07;12.98;;;22.60;99.90;;;;;;5113765;27;20039;-66
2021/09/07 08:46:35;;;;;;;18.40;13.32;;;22.80;99.90;;;;;;5113518;27;20028;-66
2021/09/07 08:49:01;;;;;;;13.88;12.40;;;22.90;99.90;;;;;;5111936;27;20027;-66
2021/09/07 08:51:27;;;;;;;13.38;11.98;;;23.00;99.90;;;;;;5112456;27;20039;-66
2021/09/07 08:53:54;;;;;;;16.63;12.88;;;23.10;99.90;;;;;;5098176;27;20120;-66
2021/09/07 08:56:20;;;;;;;15.50;12.38;;;23.20;99.90;;;;;;5097271;27;20035;-65
2021/09/07 08:58:46;;;;;;;14.38;10.90;;;23.30;99.90;;;;;;5109846;27;20047;-66
2021/09/07 09:01:16;;;;;;;14.85;11.55;;;23.50;99.90;;;;;;5096235;27;20067;-66
2021/09/07 09:03:43;;;;;;;14.27;12.13;;;23.70;99.90;;;;;;5112057;27;21420;-66
2021/09/07 09:06:09;;;;;;;13.32;11.80;;;23.80;99.90;;;;;;5112207;27;20042;-66
2021/09/07 09:08:36;;;;;;;14.07;11.27;;;23.80;99.90;;;;;;5094625;27;20041;-66
2021/09/07 09:11:12;;;;;;;13.70;12.30;;;23.90;99.90;;;;;;5113760;27;20108;-66
2021/09/07 09:13:41;;;;;;;18.90;13.63;;;24.10;99.90;;;;;;5094842;27;20119;-66
2021/09/07 09:16:07;;;;;;;17.20;13.50;;;24.20;99.90;;;;;;5110789;27;20430;-66
2021/09/07 09:18:35;;;;;;;15.45;12.10;;;24.20;99.90;;;;;;5112700;27;20049;-66
2021/09/07 09:21:21;;;;;;;15.38;13.23;;;24.30;99.90;;;;;;5115446;27;20071;-66
2021/09/07 09:24:09;;;;;;;14.25;11.68;;;24.40;98.50;;;;;;5114610;27;20050;-66
2021/09/07 09:26:57;;;;;;;13.73;10.90;;;24.40;99.40;;;;;;5114398;27;20089;-67
2021/09/07 09:29:26;;;;;;;16.75;11.98;;;24.60;99.80;;;;;;5112037;27;20038;-66
2021/09/07 09:32:13;;;;;;;15.70;11.73;;;24.80;98.40;;;;;;5112690;27;20043;-66
2021/09/07 09:34:41;;;;;;;13.57;10.73;;;25.00;97.30;;;;;;5097458;27;20111;-67
2021/09/07 09:37:16;;;;;;;12.43;11.13;;;24.90;98.50;;;;;;5111438;27;20090;-66
2021/09/07 09:39:51;;;;;;;14.32;11.80;;;25.00;97.40;;;;;;5110980;27;20039;-66
2021/09/07 09:42:27;;;;;;;15.68;11.57;;;24.70;98.30;;;;;;5112435;27;20051;-67
2021/09/07 09:45:11;;;;;;;11.98;10.68;;;24.60;97.50;;;;;;5114174;27;20035;-66
2021/09/07 09:47:39;;;;;;;13.18;11.00;;;24.70;97.00;;;;;;5108784;27;20042;-67
2021/09/07 09:50:06;;;;;;;13.88;12.38;;;24.70;94.50;;;;;;5091212;28;20044;-67
2021/09/07 09:52:40;;;;;;;12.38;11.07;;;24.80;93.80;;;;;;5114115;27;20036;-67
2021/09/07 09:55:08;;;;;;;18.95;11.13;;;24.80;94.00;;;;;;5095223;28;20040;-67
2021/09/07 09:57:35;;;;;;;13.23;11.30;;;24.90;96.60;;;;;;5110983;27;20393;-67
2021/09/07 10:00:03;;;;;;;11.70;10.50;;;24.80;96.00;;;;;;5095514;28;20143;-67
2021/09/07 10:02:32;;;;;;;13.35;11.10;;;25.00;95.90;;;;;;5112602;27;20032;-67
2021/09/07 10:04:59;;;;;;;12.13;10.15;;;24.90;93.90;;;;;;5091229;27;20067;-66
2021/09/07 10:07:28;;;;;;;15.68;12.00;;;25.00;94.80;;;;;;5113889;27;20071;-67
2021/09/07 10:09:56;;;;;;;13.05;10.20;;;25.10;92.70;;;;;;5109030;27;20049;-67
2021/09/07 10:12:36;;;;;;;16.05;11.00;;;25.20;92.20;;;;;;5094450;27;20043;-67
2021/09/07 10:15:15;;;;;;;11.88;10.00;;;25.20;97.50;;;;;;5091446;27;20104;-67
2021/09/07 10:17:45;;;;;;;13.77;9.80;;;25.30;93.80;;;;;;5093017;28;20088;-67
2021/09/07 10:20:34;;;;;;;19.45;10.80;;;25.40;95.60;;;;;;5114960;27;20121;-67
2021/09/07 10:25:45;;;;;;;14.07;10.18;;;25.50;95.60;;;;;;5117122;27;20031;-67
2021/09/07 10:28:12;;;;;;;12.77;10.93;;;25.40;94.60;;;;;;5096444;27;20619;-67
2021/09/07 10:31:02;;;;;;;18.67;10.60;;;25.40;93.30;;;;;;5118830;27;20493;-66
2021/09/07 10:33:35;;;;;;;12.82;9.30;;;25.50;90.90;;;;;;5116145;27;20099;-66
2021/09/07 10:36:17;;;;;;;10.43;9.40;;;25.50;90.80;;;;;;5099108;27;20049;-67
2021/09/07 10:38:48;;;;;;;14.00;9.80;;;25.60;92.20;;;;;;5116463;27;20038;-67
2021/09/07 10:41:29;;;;;;;11.80;9.65;;;25.70;92.40;;;;;;5115113;27;20587;-66
2021/09/07 10:44:05;;;;;;;10.32;8.55;;;25.70;91.50;;;;;;5114298;27;20074;-67
2021/09/07 10:46:43;;;;;;;13.48;9.90;;;25.80;92.50;;;;;;5097239;27;20067;-67
2021/09/07 10:49:34;;;;;;;15.00;10.20;;;25.80;92.50;;;;;;5097298;27;20035;-67
2021/09/07 10:52:31;;;;;;;11.52;9.70;;;25.80;91.40;;;;;;5115849;27;20049;-67
2021/09/07 10:55:09;;;;;;;14.32;10.88;;;25.90;87.20;;;;;;5096238;27;20180;-67
2021/09/07 10:57:35;;;;;;;14.68;11.15;;;25.80;87.80;;;;;;5118687;27;20047;-66
2021/09/07 11:00:02;;;;;;;12.90;11.13;;;25.70;87.00;;;;;;5115018;27;20054;-66
2021/09/07 11:02:34;;;;;;;11.77;10.60;;;25.60;88.70;;;;;;5115653;27;20493;-67
2021/09/07 11:05:02;;;;;;;13.52;9.63;;;25.70;91.10;;;;;;5111217;27;21742;-67
2021/09/07 11:07:45;;;;;;;13.48;10.68;;;25.70;94.10;;;;;;5099063;27;20054;-67
2021/09/07 11:10:17;;;;;;;15.05;10.68;;;25.70;89.60;;;;;;5098936;27;20039;-67
2021/09/07 11:13:02;;;;;;;13.27;10.90;;;25.70;90.20;;;;;;5121771;27;20042;-67
2021/09/07 11:15:32;;;;;;;11.48;10.32;;;25.70;88.80;;;;;;5102000;27;20071;-67
2021/09/07 11:18:04;;;;;;;11.93;10.65;;;25.80;88.70;;;;;;5117303;27;20079;-66
2021/09/07 11:20:38;;;;;;;12.20;10.88;;;25.80;91.00;;;;;;5118354;27;20036;-66
2021/09/07 11:23:31;;;;;;;13.00;10.67;;;25.60;93.10;;;;;;5102643;27;20046;-67
2021/09/07 11:26:16;;;;;;;12.02;10.82;;;25.60;91.80;;;;;;5089749;27;20430;-67
2021/09/07 11:28:46;;;;;;;13.63;11.13;;;25.60;89.90;;;;;;5096888;27;20051;-67
2021/09/07 11:31:13;;;;;;;14.70;11.07;;;25.60;90.40;;;;;;5115909;27;20040;-67
2021/09/07 11:33:40;;;;;;;13.43;10.75;;;25.70;92.80;;;;;;5104412;27;20046;-67
2021/09/07 11:36:08;;;;;;;12.88;11.27;;;25.70;92.90;;;;;;5121897;27;20180;-67
2021/09/07 11:38:37;;;;;;;18.17;12.13;;;25.70;93.00;;;;;;5112072;27;20185;-67
2021/09/07 11:41:18;;;;;;;13.25;10.80;;;25.50;92.40;;;;;;5116089;27;20047;-67
2021/09/07 11:43:54;;;;;;;12.32;10.98;;;25.50;96.00;;;;;;5114142;27;20112;-67
2021/09/07 11:46:24;;;;;;;13.70;12.32;;;25.60;94.30;;;;;;5097423;27;20081;-67
2021/09/07 11:48:52;;;;;;;26.80;11.23;;;25.60;91.10;;;;;;5113617;27;20384;-67
2021/09/07 11:51:32;;;;;;;11.77;10.55;;;25.60;92.60;;;;;;5118281;27;20030;-67
2021/09/07 11:54:00;;;;;;;14.23;11.60;;;25.70;92.50;;;;;;5095385;27;20050;-67
2021/09/07 11:56:28;;;;;;;12.02;10.10;;;25.80;93.00;;;;;;5114491;27;20488;-67
2021/09/07 11:59:18;;;;;;;14.30;9.48;;;25.70;93.60;;;;;;5092867;27;20048;-67
2021/09/07 12:01:49;;;;;;;17.65;11.77;;;25.80;96.90;;;;;;5103042;27;20118;-67
2021/09/07 12:04:17;;;;;;;14.05;10.98;;;25.90;96.50;;;;;;5111913;27;20036;-67
2021/09/07 12:06:51;;;;;;;16.75;12.27;;;26.10;92.80;;;;;;5112163;27;20039;-67
2021/09/07 12:09:27;;;;;;;15.15;11.20;;;26.10;95.10;;;;;;5095683;27;20043;-67
2021/09/07 12:12:06;;;;;;;15.88;10.45;;;26.00;95.20;;;;;;5113407;27;20039;-67
2021/09/07 12:14:45;;;;;;;17.00;11.55;;;26.10;95.00;;;;;;5114293;27;20051;-67
2021/09/07 12:17:16;;;;;;;13.02;10.90;;;26.10;93.80;;;;;;5100636;27;20327;-67
2021/09/07 12:19:44;;;;;;;15.30;11.43;;;26.20;92.70;;;;;;5110346;27;20047;-66
2021/09/07 12:22:17;;;;;;;13.23;11.43;;;26.20;92.80;;;;;;5096871;27;20046;-67
2021/09/07 12:24:57;;;;;;;13.10;11.80;;;26.00;94.00;;;;;;5095428;27;20696;-67
2021/09/07 12:27:26;;;;;;;14.77;11.75;;;25.80;93.90;;;;;;5111578;27;20050;-67
2021/09/07 12:30:21;;;;;;;13.57;12.07;;;25.80;93.10;;;;;;5113746;27;20106;-67
2021/09/07 12:32:59;;;;;;;17.85;11.23;;;25.90;90.70;;;;;;5113121;27;20775;-67
2021/09/07 12:35:38;;;;;;;13.50;11.15;;;25.90;92.70;;;;;;5094639;27;20101;-67